Wetterdaten: Woche 03.01.05 - 09.01.05 (KW1)
Datum Zeit Temperatur Luftfeuchte Luftdruck Niederschlag Windrichtung Taupunkt Windchill Wind
03.01.2005 00:00 1,0 C 87 % 1030 hPa 0,0 l/m SW -1,0 C -4,0 C 14,0 km/h (3 Bft)
03.01.2005 01:00 1,1 C 86 % 1030 hPa 0,0 l/m W-SW -1,0 C -5,2 C 15,4 km/h (3 Bft)
03.01.2005 02:00 1,2 C 86 % 1030 hPa 0,0 l/m W-SW -0,8 C -5,1 C 16,3 km/h (3 Bft)
03.01.2005 03:00 1,1 C 91 % 1030 hPa 0,0 l/m SW -0,1 C -5,2 C 15,7 km/h (3 Bft)
03.01.2005 04:00 1,1 C 91 % 1031 hPa 0,0 l/m SW -0,2 C -4,4 C 14,8 km/h (3 Bft)
03.01.2005 05:00 1,0 C 92 % 1031 hPa 0,0 l/m W-SW -0,1 C -4,0 C 13,6 km/h (3 Bft)
03.01.2005 06:00 0,9 C 92 % 1031 hPa 0,0 l/m W-SW -0,2 C -3,0 C 11,9 km/h (2 Bft)
03.01.2005 07:00 1,0 C 94 % 1032 hPa 0,0 l/m SW 0,1 C -4,5 C 14,9 km/h (3 Bft)
03.01.2005 08:00 0,9 C 91 % 1032 hPa 0,0 l/m W-SW -0,4 C -4,7 C 15,4 km/h (3 Bft)
03.01.2005 09:00 1,2 C 89 % 1033 hPa 0,0 l/m W-SW -0,4 C -5,9 C 17,8 km/h (3 Bft)
03.01.2005 10:00 1,6 C 84 % 1034 hPa 0,0 l/m SW -0,8 C -4,9 C 16,1 km/h (3 Bft)
03.01.2005 11:00 2,6 C 75 % 1034 hPa 0,0 l/m W -1,4 C -4,7 C 19,2 km/h (3 Bft)
03.01.2005 12:00 3,1 C 69 % 1034 hPa 0,0 l/m W-SW -2,1 C -4,2 C 18,9 km/h (3 Bft)
03.01.2005 13:00 2,9 C 70 % 1033 hPa 0,0 l/m W-SW -2,1 C -3,6 C 18,3 km/h (3 Bft)
03.01.2005 14:00 2,9 C 73 % 1034 hPa 0,0 l/m W-SW -1,5 C -3,6 C 18,0 km/h (3 Bft)
03.01.2005 15:00 2,5 C 75 % 1034 hPa 0,0 l/m W-SW -1,4 C -3,5 C 16,3 km/h (3 Bft)
03.01.2005 16:00 2,5 C 76 % 1034 hPa 0,0 l/m W-SW -1,3 C -4,3 C 17,1 km/h (3 Bft)
03.01.2005 17:00 2,5 C 75 % 1034 hPa 0,0 l/m SW -1,6 C -5,7 C 20,8 km/h (4 Bft)
03.01.2005 18:00 2,6 C 72 % 1034 hPa 0,0 l/m SW -2,0 C -5,8 C 20,4 km/h (4 Bft)
03.01.2005 19:00 2,7 C 69 % 1034 hPa 0,0 l/m SW -2,3 C -4,5 C 18,1 km/h (3 Bft)
03.01.2005 20:00 2,7 C 71 % 1034 hPa 0,0 l/m S-SW -1,9 C -3,9 C 17,7 km/h (3 Bft)
03.01.2005 21:00 2,6 C 73 % 1035 hPa 0,0 l/m SW -1,6 C -3,4 C 16,8 km/h (3 Bft)
03.01.2005 22:00 2,6 C 74 % 1035 hPa 0,0 l/m SW -1,6 C -4,0 C 16,7 km/h (3 Bft)
03.01.2005 23:00 2,5 C 74 % 1035 hPa 0,0 l/m SW -1,6 C -4,9 C 19,2 km/h (3 Bft)
04.01.2005 00:00 2,3 C 78 % 1034 hPa 0,0 l/m SW -1,2 C -4,7 C 18,0 km/h (3 Bft)
04.01.2005 01:00 2,2 C 78 % 1034 hPa 0,0 l/m SW -1,2 C -2,9 C 13,5 km/h (3 Bft)
04.01.2005 02:00 2,2 C 79 % 1034 hPa 0,0 l/m SW -1,1 C -3,6 C 15,0 km/h (3 Bft)
04.01.2005 03:00 2,2 C 77 % 1034 hPa 0,0 l/m SW -1,5 C -4,4 C 17,2 km/h (3 Bft)
04.01.2005 04:00 2,2 C 75 % 1033 hPa 0,0 l/m SW -1,8 C -4,2 C 15,6 km/h (3 Bft)
04.01.2005 05:00 1,8 C 74 % 1033 hPa 0,0 l/m SW -2,3 C -5,5 C 17,7 km/h (3 Bft)
04.01.2005 06:00 1,1 C 78 % 1032 hPa 0,0 l/m S-SW -2,4 C -4,9 C 15,0 km/h (3 Bft)
04.01.2005 07:00 0,8 C 80 % 1032 hPa 0,0 l/m W-SW -2,3 C -5,6 C 16,2 km/h (3 Bft)
04.01.2005 08:00 0,9 C 79 % 1032 hPa 0,0 l/m S-SW -2,2 C -5,2 C 16,4 km/h (3 Bft)
04.01.2005 09:00 1,5 C 76 % 1032 hPa 0,0 l/m W-SW -2,3 C -2,5 C 12,6 km/h (3 Bft)
04.01.2005 10:00 2,3 C 71 % 1032 hPa 0,0 l/m S -2,5 C -4,2 C 16,9 km/h (3 Bft)
04.01.2005 11:00 3,5 C 67 % 1032 hPa 0,0 l/m SW -2,0 C -4,0 C 19,4 km/h (3 Bft)
04.01.2005 12:00 4,7 C 61 % 1031 hPa 0,0 l/m S-SW -2,1 C -3,3 C 21,7 km/h (4 Bft)
04.01.2005 13:00 5,8 C 57 % 1030 hPa 0,0 l/m SW -2,0 C -1,2 C 20,2 km/h (4 Bft)
04.01.2005 14:00 6,7 C 51 % 1030 hPa 0,0 l/m S-SW -2,7 C 1,5 C 15,3 km/h (3 Bft)
04.01.2005 15:00 5,1 C 54 % 1030 hPa 0,0 l/m S-SW -3,5 C 1,2 C 12,7 km/h (3 Bft)
04.01.2005 16:00 3,6 C 60 % 1030 hPa 0,0 l/m S-SW -3,4 C 1,5 C 9,9 km/h (2 Bft)
04.01.2005 17:00 2,6 C 62 % 1029 hPa 0,0 l/m S -3,9 C 0,0 C 9,4 km/h (2 Bft)
04.01.2005 18:00 1,8 C 66 % 1029 hPa 0,0 l/m O-SO -3,9 C 0,6 C 8,1 km/h (2 Bft)
04.01.2005 19:00 1,2 C 70 % 1029 hPa 0,0 l/m O-NO -3,7 C 0,2 C 5,8 km/h (2 Bft)
04.01.2005 20:00 0,7 C 73 % 1029 hPa 0,0 l/m O-SO -3,6 C 0,5 C 2,1 km/h (1 Bft)
04.01.2005 21:00 0,1 C 78 % 1029 hPa 0,0 l/m O -3,2 C -0,4 C 6,0 km/h (2 Bft)
04.01.2005 22:00 -0,3 C 80 % 1029 hPa 0,0 l/m O-SO -3,3 C -0,6 C 1,1 km/h (1 Bft)
04.01.2005 23:00 -1,3 C 82 % 1029 hPa 0,0 l/m N -3,9 C -1,3 C 0,0 km/h (0 Bft)
05.01.2005 00:00 -1,2 C 85 % 1029 hPa 0,0 l/m O-NO -3,4 C -2,8 C 7,5 km/h (2 Bft)
05.01.2005 01:00 -1,0 C 84 % 1029 hPa 0,0 l/m O -3,5 C -4,3 C 10,0 km/h (2 Bft)
05.01.2005 02:00 -1,0 C 83 % 1029 hPa 0,0 l/m O -3,5 C -2,1 C 5,4 km/h (1 Bft)
05.01.2005 03:00 -0,3 C 83 % 1029 hPa 0,0 l/m S -2,8 C -4,8 C 12,3 km/h (3 Bft)
05.01.2005 04:00 0,0 C 79 % 1029 hPa 0,0 l/m S-SO -3,1 C -0,7 C 1,9 km/h (1 Bft)
05.01.2005 05:00 -1,0 C 83 % 1030 hPa 0,0 l/m O-NO -3,5 C -1,4 C 2,9 km/h (1 Bft)
05.01.2005 06:00 -1,2 C 84 % 1030 hPa 0,0 l/m O -3,5 C -4,9 C 10,3 km/h (2 Bft)
05.01.2005 07:00 -1,1 C 81 % 1030 hPa 0,0 l/m O-SO -3,8 C -2,0 C 5,5 km/h (1 Bft)
05.01.2005 08:00 -0,2 C 75 % 1030 hPa 0,0 l/m S-SW -4,0 C -6,5 C 15,8 km/h (3 Bft)
05.01.2005 09:00 1,1 C 73 % 1030 hPa 0,0 l/m S-SW -3,3 C -5,0 C 15,0 km/h (3 Bft)
05.01.2005 10:00 2,6 C 72 % 1030 hPa 0,0 l/m S -2,0 C -1,8 C 13,5 km/h (3 Bft)
05.01.2005 11:00 4,6 C 64 % 1030 hPa 0,0 l/m W-SW -1,6 C -1,4 C 17,3 km/h (3 Bft)
05.01.2005 12:00 6,1 C 59 % 1030 hPa 0,0 l/m S-SW -1,2 C -0,3 C 19,2 km/h (3 Bft)
05.01.2005 13:00 6,3 C 60 % 1029 hPa 0,0 l/m W-SW -0,8 C -0,4 C 20,9 km/h (4 Bft)
05.01.2005 14:00 6,1 C 62 % 1029 hPa 0,0 l/m S -0,5 C 2,9 C 12,0 km/h (2 Bft)
05.01.2005 15:00 5,3 C 71 % 1029 hPa 0,0 l/m S-SW 0,4 C 0,0 C 15,4 km/h (3 Bft)
05.01.2005 16:00 4,7 C 75 % 1029 hPa 0,0 l/m S-SW 0,7 C -0,9 C 16,2 km/h (3 Bft)
05.01.2005 17:00 4,0 C 76 % 1028 hPa 0,0 l/m S-SW 0,1 C -1,7 C 15,6 km/h (3 Bft)
05.01.2005 18:00 4,0 C 74 % 1028 hPa 0,0 l/m S-SW -0,2 C -2,5 C 16,4 km/h (3 Bft)
05.01.2005 19:00 4,6 C 72 % 1028 hPa 0,0 l/m S-SW -0,0 C -2,3 C 18,5 km/h (3 Bft)
05.01.2005 20:00 4,8 C 73 % 1028 hPa 0,0 l/m SW 0,5 C -2,4 C 19,3 km/h (3 Bft)
05.01.2005 21:00 4,3 C 78 % 1028 hPa 0,0 l/m S-SW 0,8 C -2,9 C 19,0 km/h (3 Bft)
05.01.2005 22:00 4,3 C 78 % 1028 hPa 0,0 l/m S-SW 0,8 C -0,6 C 14,8 km/h (3 Bft)
05.01.2005 23:00 4,0 C 81 % 1027 hPa 0,0 l/m S-SW 1,0 C -2,4 C 16,8 km/h (3 Bft)
06.01.2005 00:00 3,9 C 90 % 1034 hPa 0,0 l/m S-SW 2,5 C -4,2 C 21,8 km/h (4 Bft)
06.01.2005 01:00 3,7 C 95 % 1052 hPa 0,0 l/m S-SW 3,0 C -4,2 C 20,5 km/h (4 Bft)
06.01.2005 02:00 4,0 C 97 % 1025 hPa 0,0 l/m S-SW 3,6 C -4,2 C 22,2 km/h (4 Bft)
06.01.2005 03:00 4,5 C 98 % 1025 hPa 0,0 l/m S-SW 4,2 C -3,4 C 20,5 km/h (4 Bft)
06.01.2005 04:00 5,6 C 97 % 1025 hPa 0,0 l/m SW 5,1 C -2,1 C 22,5 km/h (4 Bft)
06.01.2005 05:00 6,1 C 93 % 1026 hPa 0,0 l/m SW 5,1 C -1,6 C 21,6 km/h (4 Bft)
06.01.2005 06:00 6,1 C 93 % 1027 hPa 1,0 l/m SW 5,1 C 0,2 C 16,7 km/h (3 Bft)
06.01.2005 07:00 6,0 C 96 % 1028 hPa 0,0 l/m W-SW 5,4 C 0,7 C 15,7 km/h (3 Bft)
06.01.2005 08:00 5,8 C 96 % 1029 hPa 0,0 l/m S-SW 5,1 C 2,1 C 13,4 km/h (3 Bft)
06.01.2005 09:00 6,1 C 92 % 1030 hPa 0,0 l/m W-SW 4,8 C 3,0 C 12,6 km/h (3 Bft)
06.01.2005 10:00 6,4 C 91 % 1031 hPa 0,0 l/m SW 5,1 C 1,7 C 15,1 km/h (3 Bft)
06.01.2005 11:00 7,3 C 83 % 1032 hPa 0,0 l/m W-SW 4,6 C 1,9 C 17,1 km/h (3 Bft)
06.01.2005 12:00 6,0 C 89 % 1032 hPa 2,0 l/m W 4,3 C -0,4 C 19,7 km/h (3 Bft)
06.01.2005 13:00 6,9 C 90 % 1033 hPa 0,0 l/m SW 5,4 C 3,9 C 11,7 km/h (2 Bft)
06.01.2005 14:00 6,0 C 88 % 1033 hPa 0,0 l/m W-SW 4,2 C 2,8 C 12,4 km/h (3 Bft)
06.01.2005 15:00 5,7 C 94 % 1033 hPa 0,0 l/m W-SW 4,9 C 4,8 C 6,6 km/h (2 Bft)
06.01.2005 16:00 5,7 C 94 % 1034 hPa 1,0 l/m W 4,7 C 2,7 C 12,1 km/h (2 Bft)
06.01.2005 17:00 4,9 C 91 % 1034 hPa 0,0 l/m S-SW 3,5 C 4,0 C 6,4 km/h (2 Bft)
06.01.2005 18:00 4,5 C 94 % 1035 hPa 0,0 l/m S-SW 3,6 C 4,4 C 1,3 km/h (1 Bft)
06.01.2005 19:00 4,3 C 97 % 1035 hPa 0,0 l/m W-SW 3,9 C 2,9 C 8,8 km/h (2 Bft)
06.01.2005 20:00 4,1 C 97 % 1035 hPa 0,0 l/m S-SW 3,6 C 0,3 C 12,1 km/h (2 Bft)
06.01.2005 21:00 3,6 C 99 % 1035 hPa 0,0 l/m S-SW 3,5 C 0,6 C 10,8 km/h (2 Bft)
06.01.2005 22:00 4,2 C 99 % 1035 hPa 0,0 l/m S-SW 4,1 C 0,3 C 12,9 km/h (3 Bft)
06.01.2005 23:00 4,2 C 97 % 1035 hPa 0,0 l/m S-SW 3,8 C 0,4 C 12,5 km/h (3 Bft)
07.01.2005 00:00 2,8 C 97 % 1035 hPa 0,0 l/m S-SW 2,4 C 0,6 C 9,8 km/h (2 Bft)
07.01.2005 01:00 1,8 C 99 % 1034 hPa 0,0 l/m S 1,7 C -0,0 C 7,2 km/h (2 Bft)
07.01.2005 02:00 1,6 C 100 % 1034 hPa 0,0 l/m S-SO 1,6 C 0,2 C 7,9 km/h (2 Bft)
07.01.2005 03:00 1,2 C 100 % 1034 hPa 0,0 l/m S 1,2 C -0,6 C 9,1 km/h (2 Bft)
07.01.2005 04:00 1,3 C 100 % 1034 hPa 0,0 l/m O-SO 1,3 C 1,3 C 1,0 km/h (0 Bft)
07.01.2005 05:00 1,8 C 100 % 1033 hPa 0,0 l/m S-SO 1,8 C 0,4 C 8,9 km/h (2 Bft)
07.01.2005 06:00 2,0 C 100 % 1033 hPa 0,0 l/m O 2,0 C 1,4 C 4,5 km/h (1 Bft)
07.01.2005 07:00 1,2 C 100 % 1033 hPa 0,0 l/m N 1,2 C 1,2 C 0,1 km/h (0 Bft)
07.01.2005 08:00 1,0 C 100 % 1034 hPa 0,0 l/m SO 1,0 C 0,9 C 1,6 km/h (1 Bft)
07.01.2005 09:00 1,9 C 100 % 1034 hPa 0,0 l/m O-SO 1,9 C -0,1 C 9,7 km/h (2 Bft)
07.01.2005 10:00 2,7 C 100 % 1034 hPa 0,0 l/m S-SO 2,7 C -0,5 C 12,3 km/h (3 Bft)
07.01.2005 11:00 4,4 C 99 % 1033 hPa 0,0 l/m S-SW 4,2 C 0,5 C 14,0 km/h (3 Bft)
07.01.2005 12:00 6,9 C 79 % 1033 hPa 0,0 l/m S-SW 3,5 C 1,2 C 17,5 km/h (3 Bft)
07.01.2005 13:00 9,0 C 65 % 1032 hPa 0,0 l/m S 2,8 C 3,4 C 18,4 km/h (3 Bft)
07.01.2005 14:00 9,7 C 61 % 1032 hPa 0,0 l/m S-SW 2,4 C 6,7 C 11,9 km/h (2 Bft)
07.01.2005 15:00 9,1 C 59 % 1031 hPa 0,0 l/m S 1,6 C 6,5 C 11,8 km/h (2 Bft)
07.01.2005 16:00 7,4 C 67 % 1031 hPa 0,0 l/m S 1,7 C 6,0 C 7,4 km/h (2 Bft)
07.01.2005 17:00 5,3 C 76 % 1031 hPa 0,0 l/m O 1,5 C 5,0 C 4,4 km/h (1 Bft)
07.01.2005 18:00 3,9 C 83 % 1031 hPa 0,0 l/m O 1,3 C 2,8 C 5,5 km/h (1 Bft)
07.01.2005 19:00 3,3 C 86 % 1031 hPa 0,0 l/m O-NO 1,2 C 2,4 C 5,5 km/h (1 Bft)
07.01.2005 20:00 2,1 C 88 % 1031 hPa 0,0 l/m O-NO 0,3 C 2,1 C 0,4 km/h (0 Bft)
07.01.2005 21:00 1,1 C 90 % 1030 hPa 0,0 l/m N -0,4 C 1,1 C 0,0 km/h (0 Bft)
07.01.2005 22:00 1,1 C 96 % 1029 hPa 0,0 l/m N 0,5 C 1,1 C 0,0 km/h (0 Bft)
07.01.2005 23:00 0,3 C 96 % 1029 hPa 0,0 l/m N-NO -0,3 C 0,2 C 1,0 km/h (0 Bft)
08.01.2005 00:00 0,1 C 97 % 1028 hPa 0,0 l/m NO -0,3 C 0,1 C 0,7 km/h (0 Bft)
08.01.2005 01:00 0,4 C 97 % 1027 hPa 0,0 l/m SO 0,0 C -1,1 C 7,6 km/h (2 Bft)
08.01.2005 02:00 0,7 C 95 % 1027 hPa 0,0 l/m SO 0,0 C -1,0 C 8,2 km/h (2 Bft)
08.01.2005 03:00 0,1 C 96 % 1026 hPa 0,0 l/m N-NO -0,4 C 0,0 C 2,1 km/h (1 Bft)
08.01.2005 04:00 0,2 C 98 % 1026 hPa 0,0 l/m O-NO -0,1 C 0,1 C 4,0 km/h (1 Bft)
08.01.2005 05:00 -0,1 C 98 % 1025 hPa 0,0 l/m O -0,4 C -0,6 C 3,8 km/h (1 Bft)
08.01.2005 06:00 1,3 C 85 % 1025 hPa 0,0 l/m S-SW -1,0 C -4,0 C 14,1 km/h (3 Bft)
08.01.2005 07:00 2,1 C 71 % 1024 hPa 0,0 l/m S-SW -2,6 C -4,5 C 16,9 km/h (3 Bft)
08.01.2005 08:00 2,0 C 71 % 1024 hPa 0,0 l/m S -2,8 C -3,4 C 14,8 km/h (3 Bft)
08.01.2005 09:00 1,1 C 81 % 1025 hPa 0,0 l/m S -1,7 C -2,6 C 12,5 km/h (3 Bft)
08.01.2005 10:00 2,6 C 78 % 1025 hPa 0,0 l/m S -0,8 C -1,7 C 13,0 km/h (3 Bft)
08.01.2005 11:00 5,9 C 62 % 1024 hPa 0,0 l/m S-SW -0,9 C -0,5 C 17,7 km/h (3 Bft)
08.01.2005 12:00 6,7 C 58 % 1023 hPa 0,0 l/m S -1,0 C -1,1 C 24,3 km/h (4 Bft)
08.01.2005 16:00 6,2 C 59 % 1024 hPa 0,0 l/m SW -1,2 C 2,6 C 11,7 km/h (2 Bft)
08.01.2005 17:00 6,4 C 57 % 1024 hPa 0,0 l/m S-SW -1,6 C 0,8 C 16,6 km/h (3 Bft)
08.01.2005 18:00 6,5 C 56 % 1024 hPa 0,0 l/m S-SW -1,6 C 0,8 C 16,5 km/h (3 Bft)
08.01.2005 19:00 6,5 C 58 % 1025 hPa 0,0 l/m S-SW -1,1 C 0,6 C 18,1 km/h (3 Bft)
08.01.2005 20:00 7,3 C 56 % 1025 hPa 0,0 l/m S-SW -0,8 C 2,2 C 16,7 km/h (3 Bft)
08.01.2005 21:00 8,4 C 54 % 1026 hPa 0,0 l/m SW -0,5 C 3,3 C 17,4 km/h (3 Bft)
08.01.2005 22:00 8,5 C 55 % 1026 hPa 0,0 l/m SW -0,1 C 3,6 C 16,0 km/h (3 Bft)
08.01.2005 23:00 8,0 C 68 % 1026 hPa 0,0 l/m SW 2,5 C 2,9 C 16,2 km/h (3 Bft)
09.01.2005 00:00 7,6 C 75 % 1026 hPa 0,0 l/m SW 3,4 C 2,9 C 14,7 km/h (3 Bft)
09.01.2005 01:00 7,5 C 76 % 1026 hPa 0,0 l/m S-SW 3,5 C 2,1 C 17,8 km/h (3 Bft)
09.01.2005 02:00 7,4 C 75 % 1026 hPa 0,0 l/m S-SW 3,3 C 3,1 C 14,8 km/h (3 Bft)
09.01.2005 03:00 7,5 C 75 % 1026 hPa 0,0 l/m SW 3,3 C 2,6 C 15,7 km/h (3 Bft)
09.01.2005 04:00 7,2 C 77 % 1026 hPa 0,0 l/m S-SW 3,4 C 1,9 C 16,3 km/h (3 Bft)
09.01.2005 05:00 6,2 C 79 % 1027 hPa 0,0 l/m S-SW 2,9 C 1,5 C 13,9 km/h (3 Bft)
09.01.2005 06:00 6,5 C 85 % 1027 hPa 0,0 l/m S-SW 4,2 C 1,7 C 13,8 km/h (3 Bft)
09.01.2005 07:00 6,8 C 86 % 1027 hPa 0,0 l/m S-SW 4,6 C 1,9 C 15,6 km/h (3 Bft)
09.01.2005 08:00 6,2 C 87 % 1028 hPa 0,0 l/m S-SW 4,2 C 1,5 C 13,7 km/h (3 Bft)
09.01.2005 09:00 6,5 C 86 % 1028 hPa 0,0 l/m S-SW 4,2 C 1,7 C 14,5 km/h (3 Bft)
09.01.2005 10:00 7,2 C 78 % 1029 hPa 0,0 l/m S-SW 3,7 C 3,0 C 14,0 km/h (3 Bft)
09.01.2005 11:00 7,5 C 81 % 1029 hPa 0,0 l/m S-SW 4,5 C 3,0 C 14,0 km/h (3 Bft)
09.01.2005 12:00 7,5 C 83 % 1029 hPa 0,0 l/m SW 4,7 C 4,5 C 11,6 km/h (2 Bft)
09.01.2005 13:00 8,0 C 86 % 1029 hPa 0,0 l/m S-SW 5,8 C 4,9 C 11,6 km/h (2 Bft)
09.01.2005 14:00 8,1 C 86 % 1029 hPa 0,0 l/m SW 5,9 C 5,0 C 12,3 km/h (3 Bft)
09.01.2005 15:00 8,3 C 84 % 1029 hPa 0,0 l/m S-SW 5,8 C 6,5 C 10,0 km/h (2 Bft)
09.01.2005 16:00 8,1 C 83 % 1030 hPa 0,0 l/m S-SW 5,4 C 5,6 C 11,0 km/h (2 Bft)
09.01.2005 17:00 7,0 C 86 % 1030 hPa 0,0 l/m S-SW 4,8 C 5,8 C 8,6 km/h (2 Bft)
09.01.2005 18:00 6,2 C 91 % 1030 hPa 0,0 l/m S-SW 4,8 C 4,8 C 7,6 km/h (2 Bft)
09.01.2005 19:00 7,2 C 89 % 1030 hPa 0,0 l/m S-SW 5,5 C 4,5 C 11,4 km/h (2 Bft)
09.01.2005 20:00 6,8 C 87 % 1031 hPa 0,0 l/m S-SW 4,8 C 4,4 C 10,5 km/h (2 Bft)
09.01.2005 21:00 5,4 C 90 % 1029 hPa 0,0 l/m S-SW 3,9 C 2,6 C 10,9 km/h (2 Bft)
09.01.2005 22:00 5,3 C 83 % 1029 hPa 0,0 l/m S 2,6 C 3,4 C 9,1 km/h (2 Bft)
09.01.2005 23:00 3,7 C 87 % 1029 hPa 0,0 l/m S-SW 1,8 C 3,6 C 2,6 km/h (1 Bft)
Min-Datum _ 04.01.05 04.01.05 08.01.05 - - 05.01.05 03.01.05 03.01.05
_ Min-Zeit 23:37 14:34 12:01 - - 07:52 18:22 03:51
Minimum _ -1,5 C 49 % 1023 hPa - - -4,4 C -10,8 C 0,0 km/h (0 Bft)
Max-Datum _ 07.01.05 06.01.05 06.01.05 06.01.05 - 09.01.05 07.01.05 06.01.05
_ Max-Zeit 14:33 21:30 01:14 12:07 - 14:31 14:42 04:08
Maximum _ 9,9 C 100 % 1119 hPa 2,0 l/m - 6,0 C 9,8 C 41,3 km/h
SW (6 Bft)
Durchschnitt _ 3,7 C 81 % 1030 hPa #4,0 l/m S-SW 0,6 C -0,4 C 12,8 km/h (3 Bft)

Durchschnitt Minimum Temp.3,3 C
Durchschnitt Maximum Temp.4,2 C